Time;durP1;ratioP1;P1;durP2;ratioP2;P2;SDS_P1;SDS_P2;PMS_P1;PMS_P2;Temp;Humidity;BMP_temperature;BMP_pressure;BME280_temperature;BME280_humidity;BME280_pressure;Samples;Min_cycle;Max_cycle;Signal;HPM_P1;HPM_P2
2022/11/27 00:01:15;;;;;;;12.87;8.50;;;;;;;;;;5061292;28;21048;-55
2022/11/27 00:03:41;;;;;;;13.63;8.33;;;;;;;;;;5062131;28;20483;-54
2022/11/27 00:06:07;;;;;;;14.53;8.97;;;;;;;;;;5053528;28;20481;-55
2022/11/27 00:08:33;;;;;;;9.97;8.50;;;;;;;;;;5040296;28;20430;-53
2022/11/27 00:11:05;;;;;;;16.40;9.70;;;;;;;;;;5062024;28;20945;-54
2022/11/27 00:13:31;;;;;;;12.10;8.40;;;;;;;;;;5041802;28;20445;-52
2022/11/27 00:15:57;;;;;;;11.57;7.67;;;;;;;;;;5051732;28;20445;-53
2022/11/27 00:18:23;;;;;;;10.50;8.03;;;;;;;;;;5046440;28;20823;-54
2022/11/27 00:20:49;;;;;;;12.20;9.80;;;;;;;;;;5061750;28;20514;-54
2022/11/27 00:23:15;;;;;;;11.77;8.40;;;;;;;;;;4992623;28;21000;-54
2022/11/27 00:25:48;;;;;;;9.90;8.53;;;;;;;;;;5055010;28;20485;-52
2022/11/27 00:28:14;;;;;;;11.43;8.57;;;;;;;;;;5039445;28;20448;-53
2022/11/27 00:30:40;;;;;;;11.30;9.00;;;;;;;;;;5059841;28;20429;-53
2022/11/27 00:33:06;;;;;;;8.23;7.43;;;;;;;;;;5043068;28;20457;-56
2022/11/27 00:35:32;;;;;;;8.77;7.20;;;;;;;;;;5060511;28;20440;-56
2022/11/27 00:37:58;;;;;;;11.70;8.20;;;;;;;;;;5038689;28;20448;-55
2022/11/27 00:40:24;;;;;;;13.07;7.60;;;;;;;;;;5062152;28;20950;-56
2022/11/27 00:42:50;;;;;;;8.93;7.50;;;;;;;;;;5039861;28;20465;-57
2022/11/27 00:45:16;;;;;;;14.17;6.63;;;;;;;;;;5059178;28;20989;-54
2022/11/27 00:47:42;;;;;;;12.07;8.30;;;;;;;;;;5060092;28;21261;-57
2022/11/27 00:50:08;;;;;;;16.17;7.07;;;;;;;;;;5060660;28;20441;-54
2022/11/27 00:52:34;;;;;;;10.47;7.63;;;;;;;;;;5035903;28;23250;-55
2022/11/27 00:55:00;;;;;;;10.20;6.90;;;;;;;;;;5045151;28;20448;-54
2022/11/27 00:57:26;;;;;;;9.00;7.10;;;;;;;;;;5037535;28;20972;-52
2022/11/27 00:59:52;;;;;;;12.10;8.63;;;;;;;;;;5062316;28;20429;-54
2022/11/27 01:02:18;;;;;;;11.30;7.37;;;;;;;;;;5035433;28;21131;-54
2022/11/27 01:04:47;;;;;;;12.50;8.17;;;;;;;;;;5028521;28;20442;-55
2022/11/27 01:07:13;;;;;;;10.07;7.53;;;;;;;;;;5058867;28;20541;-55
2022/11/27 01:09:39;;;;;;;12.83;7.43;;;;;;;;;;5031570;28;20526;-54
2022/11/27 01:12:05;;;;;;;8.33;7.00;;;;;;;;;;5057915;28;20938;-54
2022/11/27 01:14:31;;;;;;;19.40;8.47;;;;;;;;;;5035392;28;20496;-55
2022/11/27 01:16:57;;;;;;;9.53;7.53;;;;;;;;;;5056744;28;21186;-53
2022/11/27 01:19:23;;;;;;;11.17;7.90;;;;;;;;;;5035949;28;20437;-54
2022/11/27 01:21:49;;;;;;;9.43;8.10;;;;;;;;;;5058886;28;20546;-53
2022/11/27 01:24:15;;;;;;;11.20;7.40;;;;;;;;;;5011329;28;20511;-55
2022/11/27 01:26:41;;;;;;;9.07;6.80;;;;;;;;;;5058042;28;20477;-55
2022/11/27 01:29:07;;;;;;;10.67;9.43;;;;;;;;;;5056220;28;21027;-55
2022/11/27 01:31:33;;;;;;;12.20;7.90;;;;;;;;;;5069448;28;20656;-55
2022/11/27 01:34:03;;;;;;;10.20;8.20;;;;;;;;;;5034623;28;20479;-54
2022/11/27 01:36:29;;;;;;;11.00;7.67;;;;;;;;;;5058109;28;20448;-56
2022/11/27 01:38:55;;;;;;;10.70;7.17;;;;;;;;;;5037957;28;22758;-55
2022/11/27 01:41:22;;;;;;;12.00;8.17;;;;;;;;;;5057991;28;20430;-55
2022/11/27 01:43:56;;;;;;;13.20;9.70;;;;;;;;;;5031250;28;21581;-54
2022/11/27 01:46:24;;;;;;;9.07;7.40;;;;;;;;;;5059059;28;20469;-56
2022/11/27 01:48:51;;;;;;;9.53;7.27;;;;;;;;;;5035868;28;20526;-55
2022/11/27 01:51:17;;;;;;;10.70;7.80;;;;;;;;;;5057761;28;20453;-54
2022/11/27 01:53:43;;;;;;;8.93;7.50;;;;;;;;;;5034730;28;20537;-54
2022/11/27 01:56:09;;;;;;;10.70;7.70;;;;;;;;;;5065637;28;20437;-55
2022/11/27 01:58:35;;;;;;;13.90;7.40;;;;;;;;;;5040252;28;20443;-55
2022/11/27 02:01:01;;;;;;;11.07;7.40;;;;;;;;;;5053711;28;20425;-55
2022/11/27 02:03:27;;;;;;;13.00;7.27;;;;;;;;;;5064817;28;20857;-54
2022/11/27 02:05:53;;;;;;;11.53;8.00;;;;;;;;;;5037394;28;20481;-59
2022/11/27 02:08:19;;;;;;;13.67;8.40;;;;;;;;;;5067961;28;20838;-55
2022/11/27 02:11:03;;;;;;;14.57;8.40;;;;;;;;;;5028447;28;20454;-55
2022/11/27 02:13:31;;;;;;;10.60;8.00;;;;;;;;;;5065301;28;20465;-55
2022/11/27 02:16:05;;;;;;;11.63;6.83;;;;;;;;;;5030835;28;20473;-54
2022/11/27 02:18:43;;;;;;;12.50;7.33;;;;;;;;;;5064705;28;20476;-55
2022/11/27 02:21:19;;;;;;;12.23;9.10;;;;;;;;;;5039386;28;20985;-54
2022/11/27 02:24:01;;;;;;;11.03;6.33;;;;;;;;;;5062632;28;20519;-54
2022/11/27 02:26:33;;;;;;;8.67;6.77;;;;;;;;;;5036998;28;20556;-55
2022/11/27 02:29:00;;;;;;;11.33;7.00;;;;;;;;;;5063226;28;20436;-56
2022/11/27 02:31:33;;;;;;;12.27;8.43;;;;;;;;;;5021197;28;20673;-53
2022/11/27 02:34:01;;;;;;;11.50;7.53;;;;;;;;;;5075110;28;20596;-55
2022/11/27 02:36:29;;;;;;;10.43;7.53;;;;;;;;;;5038337;28;20936;-54
2022/11/27 02:38:58;;;;;;;12.10;6.87;;;;;;;;;;5071973;28;20879;-56
2022/11/27 02:41:38;;;;;;;9.83;7.60;;;;;;;;;;5052167;28;20445;-53
2022/11/27 02:44:04;;;;;;;11.67;7.87;;;;;;;;;;5055642;28;20812;-54
2022/11/27 02:46:30;;;;;;;11.53;6.90;;;;;;;;;;5032288;28;20488;-56
2022/11/27 02:49:02;;;;;;;11.37;6.83;;;;;;;;;;5056797;28;20434;-56
2022/11/27 02:51:30;;;;;;;9.17;6.10;;;;;;;;;;5073355;28;20442;-55
2022/11/27 02:54:00;;;;;;;25.40;7.27;;;;;;;;;;5054807;28;20433;-54
2022/11/27 02:56:26;;;;;;;9.87;6.70;;;;;;;;;;5034336;28;20426;-55
2022/11/27 02:58:52;;;;;;;9.03;5.70;;;;;;;;;;5077765;28;20446;-55
2022/11/27 03:01:18;;;;;;;8.80;6.40;;;;;;;;;;5049880;28;20456;-56
2022/11/27 03:03:45;;;;;;;10.57;6.20;;;;;;;;;;5059352;28;20478;-54
2022/11/27 03:06:12;;;;;;;10.50;7.73;;;;;;;;;;5036815;28;20488;-54
2022/11/27 03:08:41;;;;;;;7.80;6.30;;;;;;;;;;5078342;28;20429;-54
2022/11/27 03:11:08;;;;;;;8.60;5.90;;;;;;;;;;5037523;28;20942;-55
2022/11/27 03:13:37;;;;;;;9.13;5.60;;;;;;;;;;5059327;28;21487;-56
2022/11/27 03:16:12;;;;;;;9.97;5.77;;;;;;;;;;5047264;28;20448;-55
2022/11/27 03:18:47;;;;;;;6.93;5.50;;;;;;;;;;5053397;28;20436;-55
2022/11/27 03:21:16;;;;;;;5.53;5.00;;;;;;;;;;5032366;28;20543;-54
2022/11/27 03:23:42;;;;;;;8.17;5.90;;;;;;;;;;5063458;28;20437;-54
2022/11/27 03:26:08;;;;;;;8.87;5.67;;;;;;;;;;5035456;28;20469;-55
2022/11/27 03:28:34;;;;;;;9.67;8.10;;;;;;;;;;5061184;28;20581;-54
2022/11/27 03:31:00;;;;;;;10.70;5.77;;;;;;;;;;5050144;28;21037;-53
2022/11/27 03:33:25;;;;;;;8.63;6.17;;;;;;;;;;5061287;28;20852;-54
2022/11/27 03:35:52;;;;;;;6.87;5.53;;;;;;;;;;5019576;28;20437;-53
2022/11/27 03:38:18;;;;;;;7.37;5.70;;;;;;;;;;5061587;28;20567;-59
2022/11/27 03:41:13;;;;;;;7.53;5.40;;;;;;;;;;5036438;28;21482;-54
2022/11/27 03:43:44;;;;;;;7.93;7.03;;;;;;;;;;5049676;28;20437;-55
2022/11/27 03:46:10;;;;;;;10.77;5.67;;;;;;;;;;5041354;28;21078;-55
2022/11/27 03:48:43;;;;;;;9.77;5.80;;;;;;;;;;5051512;28;20463;-55
2022/11/27 03:51:42;;;;;;;9.27;5.37;;;;;;;;;;5072305;28;20457;-55
2022/11/27 03:54:12;;;;;;;10.83;6.17;;;;;;;;;;5013726;28;20453;-54
2022/11/27 03:56:48;;;;;;;10.20;5.57;;;;;;;;;;5043982;28;20449;-55
2022/11/27 03:59:14;;;;;;;14.07;6.00;;;;;;;;;;5064728;28;20501;-55
2022/11/27 04:01:40;;;;;;;11.93;5.70;;;;;;;;;;5054712;28;20524;-55
2022/11/27 04:04:06;;;;;;;18.63;5.47;;;;;;;;;;5054503;28;20908;-54
2022/11/27 04:06:37;;;;;;;8.63;6.57;;;;;;;;;;5041063;28;20479;-55
2022/11/27 04:09:04;;;;;;;9.90;6.20;;;;;;;;;;5038883;28;20465;-53
2022/11/27 04:11:30;;;;;;;9.37;6.10;;;;;;;;;;5048788;28;20452;-55
2022/11/27 04:13:56;;;;;;;8.40;5.73;;;;;;;;;;5043598;28;20467;-53
2022/11/27 04:16:21;;;;;;;9.47;6.07;;;;;;;;;;5052880;28;20906;-52
2022/11/27 04:18:47;;;;;;;11.20;6.87;;;;;;;;;;5033900;28;20963;-53
2022/11/27 04:21:13;;;;;;;11.93;6.27;;;;;;;;;;5057479;28;20507;-55
2022/11/27 04:23:39;;;;;;;8.63;6.10;;;;;;;;;;5060019;28;20425;-54
2022/11/27 04:26:05;;;;;;;12.70;7.97;;;;;;;;;;5057883;28;20474;-54
2022/11/27 04:28:31;;;;;;;12.03;6.70;;;;;;;;;;5007169;28;20450;-54
2022/11/27 04:30:57;;;;;;;9.90;6.23;;;;;;;;;;5056342;28;20425;-52
2022/11/27 04:33:23;;;;;;;9.53;5.70;;;;;;;;;;5048512;28;20530;-53
2022/11/27 04:35:50;;;;;;;10.20;6.20;;;;;;;;;;5060518;28;20467;-52
2022/11/27 04:38:16;;;;;;;6.50;4.50;;;;;;;;;;5018882;28;20797;-52
2022/11/27 04:40:42;;;;;;;10.70;5.03;;;;;;;;;;5059533;28;20448;-53
2022/11/27 04:43:07;;;;;;;8.50;5.40;;;;;;;;;;5036760;28;20476;-52
2022/11/27 04:45:33;;;;;;;9.00;6.27;;;;;;;;;;5058787;28;21233;-52
2022/11/27 04:47:59;;;;;;;13.43;5.57;;;;;;;;;;5053894;28;20426;-53
2022/11/27 04:50:25;;;;;;;7.63;5.10;;;;;;;;;;5061424;28;20414;-55
2022/11/27 04:52:51;;;;;;;9.00;4.73;;;;;;;;;;5055178;28;21300;-53
2022/11/27 04:55:17;;;;;;;8.10;4.47;;;;;;;;;;5058539;28;20433;-55
2022/11/27 04:57:43;;;;;;;7.53;5.93;;;;;;;;;;5037003;28;21233;-55
2022/11/27 05:00:10;;;;;;;6.83;4.90;;;;;;;;;;5053019;28;20449;-55
2022/11/27 05:02:35;;;;;;;7.17;4.30;;;;;;;;;;5044554;28;20430;-55
2022/11/27 05:05:01;;;;;;;9.20;7.13;;;;;;;;;;5050304;28;20449;-54
2022/11/27 05:07:27;;;;;;;7.33;6.30;;;;;;;;;;5039874;28;21727;-54
2022/11/27 05:09:53;;;;;;;13.70;7.27;;;;;;;;;;5038715;28;20563;-55
2022/11/27 05:12:19;;;;;;;9.33;4.70;;;;;;;;;;5057189;28;20997;-55
2022/11/27 05:14:45;;;;;;;8.73;4.80;;;;;;;;;;5051069;28;21390;-54
2022/11/27 05:17:11;;;;;;;6.50;5.20;;;;;;;;;;5052811;28;21087;-54
2022/11/27 05:19:37;;;;;;;6.10;5.37;;;;;;;;;;5033687;28;20799;-54
2022/11/27 05:22:03;;;;;;;7.23;5.10;;;;;;;;;;5055144;28;20429;-53
2022/11/27 05:24:30;;;;;;;6.80;5.20;;;;;;;;;;5048986;28;20878;-54
2022/11/27 05:26:56;;;;;;;8.00;6.00;;;;;;;;;;5053866;28;20548;-54
2022/11/27 05:29:22;;;;;;;7.90;4.60;;;;;;;;;;5032729;28;20561;-54
2022/11/27 05:31:48;;;;;;;7.87;4.93;;;;;;;;;;5054205;28;20430;-54
2022/11/27 05:34:14;;;;;;;7.83;5.40;;;;;;;;;;5029848;28;20449;-53
2022/11/27 05:36:40;;;;;;;7.23;5.17;;;;;;;;;;5056972;28;20445;-55
2022/11/27 05:39:06;;;;;;;11.60;5.97;;;;;;;;;;5048190;28;20441;-52
2022/11/27 05:41:32;;;;;;;5.40;3.60;;;;;;;;;;5056330;28;20908;-53
2022/11/27 05:43:58;;;;;;;7.67;6.27;;;;;;;;;;5020082;28;20445;-54
2022/11/27 05:46:24;;;;;;;6.47;4.27;;;;;;;;;;5059474;28;20978;-54
2022/11/27 05:48:50;;;;;;;6.60;3.90;;;;;;;;;;5029456;28;20434;-53
2022/11/27 05:51:16;;;;;;;5.80;4.57;;;;;;;;;;5055294;28;20838;-54
2022/11/27 05:53:42;;;;;;;8.23;4.83;;;;;;;;;;5035660;28;20445;-53
2022/11/27 05:56:09;;;;;;;8.73;5.27;;;;;;;;;;5061984;28;20449;-53
2022/11/27 05:58:35;;;;;;;12.80;4.80;;;;;;;;;;5036263;28;20429;-53
2022/11/27 06:01:01;;;;;;;5.30;4.37;;;;;;;;;;5056314;28;20854;-54
2022/11/27 06:03:27;;;;;;;5.50;3.80;;;;;;;;;;5052946;28;20465;-54
2022/11/27 06:05:53;;;;;;;4.60;4.10;;;;;;;;;;5056240;28;20568;-54
2022/11/27 06:08:19;;;;;;;8.10;4.47;;;;;;;;;;5024261;28;20445;-52
2022/11/27 06:10:46;;;;;;;5.23;3.70;;;;;;;;;;5052323;28;20440;-53
2022/11/27 06:13:12;;;;;;;5.37;4.77;;;;;;;;;;5017375;28;21410;-54
2022/11/27 06:15:38;;;;;;;5.40;4.40;;;;;;;;;;5051409;28;20445;-54
2022/11/27 06:18:04;;;;;;;5.63;3.40;;;;;;;;;;5051440;28;20430;-53
2022/11/27 06:20:30;;;;;;;6.00;3.97;;;;;;;;;;5053890;28;20433;-52
2022/11/27 06:22:56;;;;;;;5.00;3.83;;;;;;;;;;5051266;28;20587;-54
2022/11/27 06:25:22;;;;;;;5.70;5.20;;;;;;;;;;5052923;28;20461;-54
2022/11/27 06:27:48;;;;;;;6.07;4.37;;;;;;;;;;5036388;28;20816;-54
2022/11/27 06:30:14;;;;;;;11.10;5.73;;;;;;;;;;5055237;28;21591;-54
2022/11/27 06:32:40;;;;;;;5.50;4.60;;;;;;;;;;5051390;28;20465;-53
2022/11/27 06:35:07;;;;;;;8.40;5.03;;;;;;;;;;5057646;28;21028;-54
2022/11/27 06:37:33;;;;;;;7.57;4.93;;;;;;;;;;5055676;28;20433;-55
2022/11/27 06:39:59;;;;;;;5.53;5.03;;;;;;;;;;5057487;28;20514;-54
2022/11/27 06:42:25;;;;;;;7.97;5.47;;;;;;;;;;5052142;28;20426;-55
2022/11/27 06:44:51;;;;;;;10.40;5.23;;;;;;;;;;5038920;28;20441;-53
2022/11/27 06:47:17;;;;;;;9.73;5.00;;;;;;;;;;5048180;28;20469;-58
2022/11/27 06:49:43;;;;;;;6.77;4.23;;;;;;;;;;5034099;28;20449;-52
2022/11/27 06:52:09;;;;;;;9.70;5.13;;;;;;;;;;5062064;28;20450;-52
2022/11/27 06:54:34;;;;;;;10.67;5.07;;;;;;;;;;5049831;28;20473;-53
2022/11/27 06:57:00;;;;;;;7.70;5.47;;;;;;;;;;5061412;28;20689;-55
2022/11/27 06:59:26;;;;;;;10.23;5.13;;;;;;;;;;5033029;28;20460;-53
2022/11/27 07:01:52;;;;;;;6.60;4.70;;;;;;;;;;5062136;28;20483;-54
2022/11/27 07:04:18;;;;;;;10.00;5.40;;;;;;;;;;5055219;28;20429;-54
2022/11/27 07:06:44;;;;;;;8.93;5.43;;;;;;;;;;5057716;28;20470;-54
2022/11/27 07:09:10;;;;;;;13.07;5.47;;;;;;;;;;5053071;28;20438;-53
2022/11/27 07:11:37;;;;;;;6.57;5.50;;;;;;;;;;5061686;28;20441;-54
2022/11/27 07:14:03;;;;;;;7.17;5.20;;;;;;;;;;5072679;28;20460;-53
2022/11/27 07:16:30;;;;;;;7.30;5.00;;;;;;;;;;5060619;28;20444;-54
2022/11/27 07:19:00;;;;;;;7.03;4.90;;;;;;;;;;5016654;28;20437;-55
2022/11/27 07:21:26;;;;;;;8.30;4.83;;;;;;;;;;5055313;28;20936;-53
2022/11/27 07:23:52;;;;;;;7.63;4.73;;;;;;;;;;5052213;28;20446;-54
2022/11/27 07:26:22;;;;;;;9.80;5.60;;;;;;;;;;5056166;28;20466;-54
2022/11/27 07:28:48;;;;;;;8.07;5.63;;;;;;;;;;5009059;28;20473;-54
2022/11/27 07:31:18;;;;;;;12.83;5.80;;;;;;;;;;5057302;28;20434;-53
2022/11/27 07:33:44;;;;;;;9.90;5.73;;;;;;;;;;5055587;28;20422;-54
2022/11/27 07:36:17;;;;;;;9.40;5.97;;;;;;;;;;5061648;28;20471;-54
2022/11/27 07:38:43;;;;;;;7.40;6.57;;;;;;;;;;5031044;28;20434;-55
2022/11/27 07:41:09;;;;;;;10.17;6.97;;;;;;;;;;5057981;28;21440;-55
2022/11/27 07:43:35;;;;;;;8.77;6.87;;;;;;;;;;5042479;28;20821;-54
2022/11/27 07:46:08;;;;;;;8.60;6.10;;;;;;;;;;5054178;28;20473;-54
2022/11/27 07:48:34;;;;;;;9.30;6.00;;;;;;;;;;5027335;28;21051;-55
2022/11/27 07:51:00;;;;;;;7.70;6.57;;;;;;;;;;5048290;28;20458;-54
2022/11/27 07:53:26;;;;;;;6.80;4.40;;;;;;;;;;5053057;28;20504;-54
2022/11/27 07:55:52;;;;;;;9.33;5.77;;;;;;;;;;5057805;28;20449;-54
2022/11/27 07:58:18;;;;;;;8.13;5.40;;;;;;;;;;5041930;28;20449;-53
2022/11/27 08:00:44;;;;;;;12.50;6.50;;;;;;;;;;5048214;28;20500;-54
2022/11/27 08:03:10;;;;;;;8.20;5.63;;;;;;;;;;5056440;28;20472;-54
2022/11/27 08:05:36;;;;;;;6.37;5.33;;;;;;;;;;5035862;28;20567;-53
2022/11/27 08:08:03;;;;;;;9.90;5.57;;;;;;;;;;5053653;28;20444;-54
2022/11/27 08:10:28;;;;;;;9.67;6.80;;;;;;;;;;5035848;28;20440;-55
2022/11/27 08:12:54;;;;;;;5.70;5.10;;;;;;;;;;5034083;28;20438;-54
2022/11/27 08:15:20;;;;;;;5.37;4.70;;;;;;;;;;5056107;28;20440;-54
2022/11/27 08:17:46;;;;;;;10.87;5.47;;;;;;;;;;5038489;28;20523;-55
2022/11/27 08:20:12;;;;;;;6.30;5.20;;;;;;;;;;5059839;28;20438;-54
2022/11/27 08:22:38;;;;;;;10.90;5.70;;;;;;;;;;5013244;28;20475;-55
2022/11/27 08:25:05;;;;;;;6.07;5.27;;;;;;;;;;5041556;28;23149;-53
2022/11/27 08:27:32;;;;;;;9.03;6.20;;;;;;;;;;5041912;28;20452;-54
2022/11/27 08:29:58;;;;;;;11.40;5.60;;;;;;;;;;5031056;28;20437;-55
2022/11/27 08:32:24;;;;;;;5.67;4.13;;;;;;;;;;5051868;28;20453;-53
2022/11/27 08:34:50;;;;;;;11.43;5.70;;;;;;;;;;5045452;28;20465;-57
2022/11/27 08:37:16;;;;;;;5.37;4.63;;;;;;;;;;5061401;28;20455;-55
2022/11/27 08:39:42;;;;;;;11.40;4.87;;;;;;;;;;5029943;28;20444;-56
2022/11/27 08:42:08;;;;;;;5.47;4.57;;;;;;;;;;5053250;28;20553;-54
2022/11/27 08:44:34;;;;;;;11.90;5.60;;;;;;;;;;5057096;28;20854;-55
2022/11/27 08:47:00;;;;;;;7.13;5.23;;;;;;;;;;5058451;28;20483;-55
2022/11/27 08:49:26;;;;;;;7.77;5.97;;;;;;;;;;5004257;28;20468;-54
2022/11/27 08:51:52;;;;;;;5.13;4.57;;;;;;;;;;5057042;28;20454;-59
2022/11/27 08:54:18;;;;;;;5.87;4.90;;;;;;;;;;5013990;28;20839;-55
2022/11/27 08:56:44;;;;;;;6.30;4.33;;;;;;;;;;5053015;28;20511;-52
2022/11/27 08:59:10;;;;;;;9.37;5.37;;;;;;;;;;5034674;28;20679;-55
2022/11/27 09:01:36;;;;;;;3.67;3.00;;;;;;;;;;5055196;28;21349;-54
2022/11/27 09:04:02;;;;;;;5.73;3.63;;;;;;;;;;5057397;28;21224;-54
2022/11/27 09:06:30;;;;;;;4.90;3.67;;;;;;;;;;5057722;28;21541;-54
2022/11/27 09:08:56;;;;;;;6.80;2.90;;;;;;;;;;5049213;28;21929;-55
2022/11/27 09:11:22;;;;;;;3.20;2.87;;;;;;;;;;5043547;28;21165;-55
2022/11/27 09:13:48;;;;;;;5.30;3.97;;;;;;;;;;5050818;28;20448;-54
2022/11/27 09:16:15;;;;;;;3.93;3.47;;;;;;;;;;5034769;28;20438;-54
2022/11/27 09:18:42;;;;;;;3.40;2.70;;;;;;;;;;5037925;28;20458;-55
2022/11/27 09:21:09;;;;;;;4.67;3.53;;;;;;;;;;4997768;28;20500;-54
2022/11/27 09:23:36;;;;;;;6.03;3.50;;;;;;;;;;5051194;28;21027;-54
2022/11/27 09:26:03;;;;;;;5.20;3.53;;;;;;;;;;5016605;28;20866;-53
2022/11/27 09:28:29;;;;;;;4.93;3.60;;;;;;;;;;5029446;28;22220;-54
2022/11/27 09:30:55;;;;;;;3.60;3.20;;;;;;;;;;5051645;28;20524;-53
2022/11/27 09:33:21;;;;;;;7.30;2.83;;;;;;;;;;5044185;28;20991;-54
2022/11/27 09:35:47;;;;;;;3.40;2.80;;;;;;;;;;5055946;28;20425;-53
2022/11/27 09:38:13;;;;;;;3.70;2.77;;;;;;;;;;5047068;28;21008;-54
2022/11/27 09:40:55;;;;;;;6.70;3.57;;;;;;;;;;5020269;28;20671;-54
2022/11/27 09:43:26;;;;;;;6.70;3.27;;;;;;;;;;5046758;28;20984;-56
2022/11/27 09:45:54;;;;;;;2.80;2.40;;;;;;;;;;5047429;28;20477;-54
2022/11/27 09:48:39;;;;;;;5.53;3.07;;;;;;;;;;5051147;28;20445;-54
2022/11/27 09:51:37;;;;;;;4.20;3.00;;;;;;;;;;5010320;28;20452;-54
2022/11/27 09:54:26;;;;;;;5.43;3.33;;;;;;;;;;5007861;28;20453;-55
2022/11/27 09:56:53;;;;;;;9.00;4.70;;;;;;;;;;4972290;28;20451;-54
2022/11/27 09:59:19;;;;;;;7.57;3.63;;;;;;;;;;5063689;28;20490;-54
2022/11/27 10:01:45;;;;;;;4.80;3.20;;;;;;;;;;5023284;28;20493;-56
2022/11/27 10:04:15;;;;;;;5.70;3.47;;;;;;;;;;5032172;28;20551;-54
2022/11/27 10:06:41;;;;;;;7.00;4.13;;;;;;;;;;5073453;28;20526;-54
2022/11/27 10:09:22;;;;;;;4.50;3.20;;;;;;;;;;5022502;28;20433;-54
2022/11/27 10:12:02;;;;;;;5.90;3.77;;;;;;;;;;5058311;28;20433;-54
2022/11/27 10:14:40;;;;;;;5.67;3.63;;;;;;;;;;5049021;28;20440;-53
2022/11/27 10:17:09;;;;;;;2.80;2.60;;;;;;;;;;5055601;28;20464;-54
2022/11/27 10:19:39;;;;;;;4.50;2.80;;;;;;;;;;5036558;28;20424;-54
2022/11/27 10:22:31;;;;;;;6.83;3.20;;;;;;;;;;5000909;28;21302;-57
2022/11/27 10:25:16;;;;;;;3.10;2.80;;;;;;;;;;5025662;28;20537;-54
2022/11/27 10:27:44;;;;;;;5.10;3.37;;;;;;;;;;5040624;28;20456;-55
2022/11/27 10:30:44;;;;;;;4.17;3.53;;;;;;;;;;5013027;28;20453;-54
2022/11/27 10:33:15;;;;;;;2.93;2.37;;;;;;;;;;5001486;28;21401;-55
2022/11/27 10:35:41;;;;;;;3.50;2.60;;;;;;;;;;5043785;28;20927;-55
2022/11/27 10:38:10;;;;;;;4.40;3.00;;;;;;;;;;5016675;28;20508;-54
2022/11/27 10:40:36;;;;;;;6.60;3.60;;;;;;;;;;5053912;28;20445;-55
2022/11/27 10:43:11;;;;;;;4.80;3.10;;;;;;;;;;5033352;28;20470;-54
2022/11/27 10:45:57;;;;;;;3.67;2.77;;;;;;;;;;5049385;28;20484;-53
2022/11/27 10:48:23;;;;;;;6.00;3.40;;;;;;;;;;5025465;28;20441;-53
2022/11/27 10:50:49;;;;;;;3.80;2.60;;;;;;;;;;5070857;28;20461;-54
2022/11/27 10:53:18;;;;;;;5.33;2.60;;;;;;;;;;5025610;28;20429;-55
2022/11/27 10:55:44;;;;;;;4.33;2.80;;;;;;;;;;5054075;28;20434;-54
2022/11/27 10:58:29;;;;;;;4.97;3.00;;;;;;;;;;5035702;28;20441;-54
2022/11/27 11:01:02;;;;;;;6.03;4.90;;;;;;;;;;5056860;28;20761;-54
2022/11/27 11:03:28;;;;;;;9.03;5.10;;;;;;;;;;5007652;28;20520;-55
2022/11/27 11:05:54;;;;;;;8.10;4.53;;;;;;;;;;5050829;28;20548;-52
2022/11/27 11:08:21;;;;;;;5.57;5.07;;;;;;;;;;5017683;28;20477;-53
2022/11/27 11:10:51;;;;;;;6.20;5.60;;;;;;;;;;5056203;28;20517;-55
2022/11/27 11:13:18;;;;;;;7.07;5.20;;;;;;;;;;5047430;28;20434;-54
2022/11/27 11:15:54;;;;;;;8.40;5.50;;;;;;;;;;5055674;28;20441;-54
2022/11/27 11:18:27;;;;;;;5.63;4.70;;;;;;;;;;5042925;28;20451;-53
2022/11/27 11:20:54;;;;;;;7.90;5.60;;;;;;;;;;5054480;28;20425;-54
2022/11/27 11:23:21;;;;;;;6.20;4.33;;;;;;;;;;5002605;28;21309;-54
2022/11/27 11:25:51;;;;;;;3.80;3.20;;;;;;;;;;5044746;28;20465;-55
2022/11/27 11:28:18;;;;;;;4.30;3.50;;;;;;;;;;5021010;28;20459;-54
2022/11/27 11:30:50;;;;;;;4.70;3.10;;;;;;;;;;5075677;28;20469;-54
2022/11/27 11:33:16;;;;;;;4.53;3.70;;;;;;;;;;5025728;28;21416;-55
2022/11/27 11:35:42;;;;;;;6.17;3.90;;;;;;;;;;5048284;28;21373;-54
2022/11/27 11:38:15;;;;;;;4.20;3.73;;;;;;;;;;4997805;28;22006;-53
2022/11/27 11:40:44;;;;;;;7.93;4.77;;;;;;;;;;5050461;28;20429;-55
2022/11/27 11:43:26;;;;;;;4.67;3.40;;;;;;;;;;5034289;28;20498;-55
2022/11/27 11:45:52;;;;;;;3.07;2.60;;;;;;;;;;5053542;28;20774;-55
2022/11/27 11:48:21;;;;;;;5.80;3.60;;;;;;;;;;5049613;28;20466;-56
2022/11/27 11:50:49;;;;;;;3.93;2.70;;;;;;;;;;5049890;28;20467;-53
2022/11/27 11:53:15;;;;;;;4.10;3.70;;;;;;;;;;5037379;28;20453;-54
2022/11/27 11:56:03;;;;;;;3.93;3.47;;;;;;;;;;5040389;28;20462;-53
2022/11/27 11:58:35;;;;;;;5.27;3.97;;;;;;;;;;5046004;28;21142;-53
2022/11/27 12:01:20;;;;;;;5.07;4.03;;;;;;;;;;5054691;28;20538;-54
2022/11/27 12:04:05;;;;;;;7.50;4.50;;;;;;;;;;5035426;28;20522;-54
2022/11/27 12:06:34;;;;;;;4.40;4.00;;;;;;;;;;5050455;28;20477;-54
2022/11/27 12:09:03;;;;;;;5.60;4.00;;;;;;;;;;5012477;28;20960;-54
2022/11/27 12:11:47;;;;;;;5.23;3.70;;;;;;;;;;5052924;28;20494;-53
2022/11/27 12:14:16;;;;;;;5.30;3.63;;;;;;;;;;5040497;28;20449;-54
2022/11/27 12:17:02;;;;;;;3.67;2.80;;;;;;;;;;5059506;28;20453;-54
2022/11/27 12:19:34;;;;;;;3.90;3.50;;;;;;;;;;5031639;28;20534;-55
2022/11/27 12:22:19;;;;;;;6.40;3.10;;;;;;;;;;5054591;28;20520;-55
2022/11/27 12:24:51;;;;;;;4.70;3.20;;;;;;;;;;5024027;28;20445;-55
2022/11/27 12:27:52;;;;;;;5.93;4.10;;;;;;;;;;5052163;28;20470;-54
2022/11/27 12:30:22;;;;;;;5.10;3.50;;;;;;;;;;5015754;28;20950;-55
2022/11/27 12:32:54;;;;;;;5.10;4.00;;;;;;;;;;5047098;28;20479;-55
2022/11/27 12:35:26;;;;;;;5.43;4.27;;;;;;;;;;5051308;28;20445;-54
2022/11/27 12:37:58;;;;;;;4.67;2.90;;;;;;;;;;5053654;28;20445;-55
2022/11/27 12:40:43;;;;;;;5.03;3.67;;;;;;;;;;5024578;28;20587;-55
2022/11/27 12:46:19;;;;;;;5.10;3.57;;;;;;;;;;4997109;28;20563;-54
2022/11/27 12:48:53;;;;;;;4.90;3.93;;;;;;;;;;5072921;28;20444;-60
2022/11/27 12:51:39;;;;;;;4.83;3.20;;;;;;;;;;5026852;28;20444;-58
2022/11/27 12:54:16;;;;;;;3.47;2.60;;;;;;;;;;5051992;28;20446;-55
2022/11/27 12:56:50;;;;;;;6.03;3.03;;;;;;;;;;5051481;28;20429;-55
2022/11/27 12:59:26;;;;;;;3.53;3.10;;;;;;;;;;5048087;28;21288;-55
2022/11/27 13:01:54;;;;;;;4.87;3.27;;;;;;;;;;5039796;28;20426;-60
2022/11/27 13:04:26;;;;;;;3.87;3.03;;;;;;;;;;5051561;28;20977;-55
2022/11/27 13:06:58;;;;;;;4.37;3.20;;;;;;;;;;5056090;28;20564;-59
2022/11/27 13:09:26;;;;;;;3.60;2.30;;;;;;;;;;5068712;28;20434;-55
2022/11/27 13:11:52;;;;;;;3.07;2.63;;;;;;;;;;5067824;28;20437;-60
2022/11/27 13:14:37;;;;;;;3.10;2.33;;;;;;;;;;5057404;28;20448;-56
2022/11/27 13:17:04;;;;;;;3.43;2.80;;;;;;;;;;5018892;28;20450;-54
2022/11/27 13:19:31;;;;;;;3.20;2.90;;;;;;;;;;5047828;28;20525;-59
2022/11/27 13:21:57;;;;;;;3.97;2.53;;;;;;;;;;5027511;28;20441;-55
2022/11/27 13:24:24;;;;;;;5.60;3.57;;;;;;;;;;5073645;28;20438;-54
2022/11/27 13:26:53;;;;;;;3.53;2.67;;;;;;;;;;5026200;28;20830;-54
2022/11/27 13:29:29;;;;;;;3.83;2.53;;;;;;;;;;5051836;28;20652;-55
2022/11/27 13:31:55;;;;;;;2.80;2.50;;;;;;;;;;5042762;28;20438;-55
2022/11/27 13:34:22;;;;;;;2.80;2.40;;;;;;;;;;5060653;28;20441;-55
2022/11/27 13:36:54;;;;;;;5.20;3.23;;;;;;;;;;5053101;28;21125;-54
2022/11/27 13:39:30;;;;;;;3.17;2.27;;;;;;;;;;5054622;28;20521;-53
2022/11/27 13:42:00;;;;;;;2.60;2.17;;;;;;;;;;5057226;28;20957;-54
2022/11/27 13:44:26;;;;;;;4.00;2.97;;;;;;;;;;5059127;28;20425;-54
2022/11/27 13:46:53;;;;;;;3.83;2.57;;;;;;;;;;5006183;28;20472;-54
2022/11/27 13:49:24;;;;;;;6.63;5.17;;;;;;;;;;5054274;28;20996;-55
2022/11/27 13:51:50;;;;;;;3.23;2.93;;;;;;;;;;5030767;28;20988;-55
2022/11/27 13:54:18;;;;;;;4.10;3.30;;;;;;;;;;5071517;28;20418;-53
2022/11/27 13:56:44;;;;;;;4.93;2.97;;;;;;;;;;5013563;28;20449;-54
2022/11/27 13:59:20;;;;;;;5.20;3.27;;;;;;;;;;5044151;28;20434;-55
2022/11/27 14:02:03;;;;;;;2.50;2.30;;;;;;;;;;5052634;28;20601;-54
2022/11/27 14:04:30;;;;;;;4.13;3.10;;;;;;;;;;5060458;28;20432;-54
2022/11/27 14:06:57;;;;;;;4.00;3.00;;;;;;;;;;5054332;28;20465;-54
2022/11/27 14:09:53;;;;;;;5.40;3.70;;;;;;;;;;5059135;28;20425;-55
2022/11/27 14:12:21;;;;;;;5.20;4.30;;;;;;;;;;5034072;28;20437;-55
2022/11/27 14:15:10;;;;;;;6.77;5.00;;;;;;;;;;5059491;28;20430;-53
2022/11/27 14:17:40;;;;;;;5.10;4.10;;;;;;;;;;5030431;28;20456;-53
2022/11/27 14:20:19;;;;;;;4.60;3.30;;;;;;;;;;5057958;28;20433;-54
2022/11/27 14:22:45;;;;;;;5.87;3.70;;;;;;;;;;5056345;28;20858;-55
2022/11/27 14:25:21;;;;;;;8.03;4.80;;;;;;;;;;5050108;28;20759;-54
2022/11/27 14:27:47;;;;;;;11.60;7.10;;;;;;;;;;5045781;28;20463;-52
2022/11/27 14:30:23;;;;;;;8.07;6.33;;;;;;;;;;5045407;28;20495;-53
2022/11/27 14:32:49;;;;;;;6.07;3.97;;;;;;;;;;5049155;28;20502;-53
2022/11/27 14:35:19;;;;;;;5.20;4.40;;;;;;;;;;5057943;28;20429;-53
2022/11/27 14:37:45;;;;;;;7.60;5.40;;;;;;;;;;5060197;28;20760;-54
2022/11/27 14:40:15;;;;;;;5.80;4.90;;;;;;;;;;5059915;28;20451;-54
2022/11/27 14:42:41;;;;;;;5.60;4.33;;;;;;;;;;5054651;28;20437;-54
2022/11/27 14:45:08;;;;;;;7.73;5.50;;;;;;;;;;5061292;28;20540;-54
2022/11/27 14:47:34;;;;;;;5.77;4.33;;;;;;;;;;5050882;28;20828;-54
2022/11/27 14:50:15;;;;;;;5.17;4.10;;;;;;;;;;5039816;28;21067;-55
2022/11/27 14:52:42;;;;;;;7.40;6.40;;;;;;;;;;5037113;28;20502;-53
2022/11/27 14:55:17;;;;;;;6.13;4.50;;;;;;;;;;5058255;28;20521;-54